sensor_id;sensor_type;location;lat;lon;timestamp;temperature;humidity
1391;DHT22;690;51.454;7.194;2022-12-18T00:00:45;-3.50;1.00
1391;DHT22;690;51.454;7.194;2022-12-18T00:03:12;-3.50;1.00
1391;DHT22;690;51.454;7.194;2022-12-18T00:05:46;-3.50;1.00
1391;DHT22;690;51.454;7.194;2022-12-18T00:08:13;-3.60;1.00
1391;DHT22;690;51.454;7.194;2022-12-18T00:10:40;-3.50;1.00
1391;DHT22;690;51.454;7.194;2022-12-18T00:13:07;-3.50;1.00
1391;DHT22;690;51.454;7.194;2022-12-18T00:15:36;-3.50;1.00
1391;DHT22;690;51.454;7.194;2022-12-18T00:18:04;-3.40;1.00
1391;DHT22;690;51.454;7.194;2022-12-18T00:20:32;-3.40;1.00
1391;DHT22;690;51.454;7.194;2022-12-18T00:23:01;-3.40;1.00
1391;DHT22;690;51.454;7.194;2022-12-18T00:25:28;-3.40;1.00
1391;DHT22;690;51.454;7.194;2022-12-18T00:27:55;-3.40;1.00
1391;DHT22;690;51.454;7.194;2022-12-18T00:30:22;-3.50;1.00
1391;DHT22;690;51.454;7.194;2022-12-18T00:32:51;-3.50;1.00
1391;DHT22;690;51.454;7.194;2022-12-18T00:35:18;-3.50;1.00
1391;DHT22;690;51.454;7.194;2022-12-18T00:37:44;-3.50;1.00
1391;DHT22;690;51.454;7.194;2022-12-18T00:40:12;-3.50;1.00
1391;DHT22;690;51.454;7.194;2022-12-18T00:42:39;-3.60;1.00
1391;DHT22;690;51.454;7.194;2022-12-18T00:45:23;-3.60;1.00
1391;DHT22;690;51.454;7.194;2022-12-18T00:47:52;-3.60;1.00
1391;DHT22;690;51.454;7.194;2022-12-18T00:50:19;-3.60;1.00
1391;DHT22;690;51.454;7.194;2022-12-18T00:52:46;-3.60;1.00
1391;DHT22;690;51.454;7.194;2022-12-18T00:55:13;-3.60;1.00
1391;DHT22;690;51.454;7.194;2022-12-18T00:57:40;-3.60;1.00
1391;DHT22;690;51.454;7.194;2022-12-18T01:00:11;-3.70;1.00
1391;DHT22;690;51.454;7.194;2022-12-18T01:02:38;-3.70;1.00
1391;DHT22;690;51.454;7.194;2022-12-18T01:05:08;-3.70;1.00
1391;DHT22;690;51.454;7.194;2022-12-18T01:07:35;-3.80;1.00
1391;DHT22;690;51.454;7.194;2022-12-18T01:10:03;-3.70;1.00
1391;DHT22;690;51.454;7.194;2022-12-18T01:12:30;-3.80;1.00
1391;DHT22;690;51.454;7.194;2022-12-18T01:14:57;-3.80;1.00
1391;DHT22;690;51.454;7.194;2022-12-18T01:17:24;-3.80;1.00
1391;DHT22;690;51.454;7.194;2022-12-18T01:19:51;-3.80;1.00
1391;DHT22;690;51.454;7.194;2022-12-18T01:22:19;-3.90;1.00
1391;DHT22;690;51.454;7.194;2022-12-18T01:24:46;-3.90;1.00
1391;DHT22;690;51.454;7.194;2022-12-18T01:27:13;-3.90;1.00
1391;DHT22;690;51.454;7.194;2022-12-18T01:29:40;-3.80;1.00
1391;DHT22;690;51.454;7.194;2022-12-18T01:32:07;-3.80;1.00
1391;DHT22;690;51.454;7.194;2022-12-18T01:34:35;-3.80;1.00
1391;DHT22;690;51.454;7.194;2022-12-18T01:37:03;-3.80;1.00
1391;DHT22;690;51.454;7.194;2022-12-18T01:39:32;-3.80;1.00
1391;DHT22;690;51.454;7.194;2022-12-18T01:41:59;-3.70;1.00
1391;DHT22;690;51.454;7.194;2022-12-18T01:44:55;-3.70;1.00
1391;DHT22;690;51.454;7.194;2022-12-18T01:47:25;-3.70;1.00
1391;DHT22;690;51.454;7.194;2022-12-18T01:49:53;-3.70;1.00
1391;DHT22;690;51.454;7.194;2022-12-18T01:52:22;-3.80;1.00
1391;DHT22;690;51.454;7.194;2022-12-18T01:54:51;-3.80;1.00
1391;DHT22;690;51.454;7.194;2022-12-18T01:57:19;-3.80;1.00
1391;DHT22;690;51.454;7.194;2022-12-18T01:59:49;-3.90;1.00
1391;DHT22;690;51.454;7.194;2022-12-18T02:02:17;-3.90;1.00
1391;DHT22;690;51.454;7.194;2022-12-18T02:04:45;-3.80;1.00
1391;DHT22;690;51.454;7.194;2022-12-18T02:07:17;-3.80;1.00
1391;DHT22;690;51.454;7.194;2022-12-18T02:09:48;-3.70;1.00
1391;DHT22;690;51.454;7.194;2022-12-18T02:12:20;-3.70;1.00
1391;DHT22;690;51.454;7.194;2022-12-18T02:14:54;-3.70;1.00
1391;DHT22;690;51.454;7.194;2022-12-18T02:17:30;-3.70;1.00
1391;DHT22;690;51.454;7.194;2022-12-18T02:20:07;-3.70;1.00
1391;DHT22;690;51.454;7.194;2022-12-18T02:22:48;-3.70;1.00
1391;DHT22;690;51.454;7.194;2022-12-18T02:25:28;-3.70;1.00
1391;DHT22;690;51.454;7.194;2022-12-18T02:27:59;-3.70;1.00
1391;DHT22;690;51.454;7.194;2022-12-18T02:30:29;-3.70;1.00
1391;DHT22;690;51.454;7.194;2022-12-18T02:32:57;-3.70;1.00
1391;DHT22;690;51.454;7.194;2022-12-18T02:35:28;-3.70;1.00
1391;DHT22;690;51.454;7.194;2022-12-18T02:37:56;-3.80;1.00
1391;DHT22;690;51.454;7.194;2022-12-18T02:40:26;-3.80;1.00
1391;DHT22;690;51.454;7.194;2022-12-18T02:42:54;-3.80;1.00
1391;DHT22;690;51.454;7.194;2022-12-18T02:45:22;-3.90;1.00
1391;DHT22;690;51.454;7.194;2022-12-18T02:47:49;-3.90;1.00
1391;DHT22;690;51.454;7.194;2022-12-18T02:50:33;-3.90;1.00
1391;DHT22;690;51.454;7.194;2022-12-18T02:53:06;-4.00;1.00
1391;DHT22;690;51.454;7.194;2022-12-18T02:55:45;-4.00;1.00
1391;DHT22;690;51.454;7.194;2022-12-18T02:58:18;-4.10;1.00
1391;DHT22;690;51.454;7.194;2022-12-18T03:00:51;-4.10;1.00
1391;DHT22;690;51.454;7.194;2022-12-18T03:03:25;-4.10;1.00
1391;DHT22;690;51.454;7.194;2022-12-18T03:05:57;-4.10;1.00
1391;DHT22;690;51.454;7.194;2022-12-18T03:08:27;-4.20;1.00
1391;DHT22;690;51.454;7.194;2022-12-18T03:10:58;-4.30;1.00
1391;DHT22;690;51.454;7.194;2022-12-18T03:13:33;-4.40;1.00
1391;DHT22;690;51.454;7.194;2022-12-18T03:16:05;-4.40;1.00
1391;DHT22;690;51.454;7.194;2022-12-18T03:18:36;-4.50;1.00
1391;DHT22;690;51.454;7.194;2022-12-18T03:21:06;-4.50;1.00
1391;DHT22;690;51.454;7.194;2022-12-18T03:23:38;-4.50;1.00
1391;DHT22;690;51.454;7.194;2022-12-18T03:26:09;-4.50;1.00
1391;DHT22;690;51.454;7.194;2022-12-18T03:28:39;-4.50;1.00
1391;DHT22;690;51.454;7.194;2022-12-18T03:31:10;-4.50;1.00
1391;DHT22;690;51.454;7.194;2022-12-18T03:33:41;-4.50;1.00
1391;DHT22;690;51.454;7.194;2022-12-18T03:36:11;-4.50;1.00
1391;DHT22;690;51.454;7.194;2022-12-18T03:38:38;-4.50;1.00
1391;DHT22;690;51.454;7.194;2022-12-18T03:41:12;-4.50;1.00
1391;DHT22;690;51.454;7.194;2022-12-18T03:43:48;-4.50;1.00
1391;DHT22;690;51.454;7.194;2022-12-18T03:46:24;-4.50;1.00
1391;DHT22;690;51.454;7.194;2022-12-18T03:48:58;-4.50;1.00
1391;DHT22;690;51.454;7.194;2022-12-18T03:51:36;-4.50;1.00
1391;DHT22;690;51.454;7.194;2022-12-18T03:54:08;-4.50;1.00
1391;DHT22;690;51.454;7.194;2022-12-18T03:56:38;-4.50;1.00
1391;DHT22;690;51.454;7.194;2022-12-18T03:59:08;-4.40;1.00
1391;DHT22;690;51.454;7.194;2022-12-18T04:01:39;-4.40;1.00
1391;DHT22;690;51.454;7.194;2022-12-18T04:04:07;-4.50;1.00
1391;DHT22;690;51.454;7.194;2022-12-18T04:06:35;-4.40;1.00
1391;DHT22;690;51.454;7.194;2022-12-18T04:09:04;-4.50;1.00
1391;DHT22;690;51.454;7.194;2022-12-18T04:11:31;-4.50;1.00
1391;DHT22;690;51.454;7.194;2022-12-18T04:13:58;-4.60;1.00
1391;DHT22;690;51.454;7.194;2022-12-18T04:16:25;-4.50;1.00
1391;DHT22;690;51.454;7.194;2022-12-18T04:18:54;-4.60;1.00
1391;DHT22;690;51.454;7.194;2022-12-18T04:21:20;-4.60;1.00
1391;DHT22;690;51.454;7.194;2022-12-18T04:23:48;-4.60;1.00
1391;DHT22;690;51.454;7.194;2022-12-18T04:26:15;-4.60;1.00
1391;DHT22;690;51.454;7.194;2022-12-18T04:28:41;-4.60;1.00
1391;DHT22;690;51.454;7.194;2022-12-18T04:31:08;-4.60;1.00
1391;DHT22;690;51.454;7.194;2022-12-18T04:33:35;-4.60;1.00
1391;DHT22;690;51.454;7.194;2022-12-18T04:36:04;-4.60;1.00
1391;DHT22;690;51.454;7.194;2022-12-18T04:38:31;-4.50;1.00
1391;DHT22;690;51.454;7.194;2022-12-18T04:40:58;-4.60;1.00
1391;DHT22;690;51.454;7.194;2022-12-18T04:43:25;-4.50;1.00
1391;DHT22;690;51.454;7.194;2022-12-18T04:45:52;-4.50;1.00
1391;DHT22;690;51.454;7.194;2022-12-18T04:48:19;-4.50;1.00
1391;DHT22;690;51.454;7.194;2022-12-18T04:50:46;-4.50;1.00
1391;DHT22;690;51.454;7.194;2022-12-18T04:53:15;-4.40;1.00
1391;DHT22;690;51.454;7.194;2022-12-18T04:55:41;-4.40;1.00
1391;DHT22;690;51.454;7.194;2022-12-18T04:58:08;-4.30;1.00
1391;DHT22;690;51.454;7.194;2022-12-18T05:00:35;-4.30;1.00
1391;DHT22;690;51.454;7.194;2022-12-18T05:03:02;-4.30;1.00
1391;DHT22;690;51.454;7.194;2022-12-18T05:05:29;-4.30;1.00
1391;DHT22;690;51.454;7.194;2022-12-18T05:07:56;-4.30;1.00
1391;DHT22;690;51.454;7.194;2022-12-18T05:10:24;-4.30;1.00
1391;DHT22;690;51.454;7.194;2022-12-18T05:12:51;-4.30;1.00
1391;DHT22;690;51.454;7.194;2022-12-18T05:15:28;-4.30;1.00
1391;DHT22;690;51.454;7.194;2022-12-18T05:17:55;-4.40;1.00
1391;DHT22;690;51.454;7.194;2022-12-18T05:20:22;-4.30;1.00
1391;DHT22;690;51.454;7.194;2022-12-18T05:22:50;-4.40;1.00
1391;DHT22;690;51.454;7.194;2022-12-18T05:25:17;-4.40;1.00
1391;DHT22;690;51.454;7.194;2022-12-18T05:27:46;-4.40;1.00
1391;DHT22;690;51.454;7.194;2022-12-18T05:30:13;-4.40;1.00
1391;DHT22;690;51.454;7.194;2022-12-18T05:32:41;-4.40;1.00
1391;DHT22;690;51.454;7.194;2022-12-18T05:35:10;-4.40;1.00
1391;DHT22;690;51.454;7.194;2022-12-18T05:37:37;-4.40;1.00
1391;DHT22;690;51.454;7.194;2022-12-18T05:40:04;-4.40;1.00
1391;DHT22;690;51.454;7.194;2022-12-18T05:42:31;-4.40;1.00
1391;DHT22;690;51.454;7.194;2022-12-18T05:45:01;-4.50;1.00
1391;DHT22;690;51.454;7.194;2022-12-18T05:47:28;-4.60;1.00
1391;DHT22;690;51.454;7.194;2022-12-18T05:49:55;-4.70;1.00
1391;DHT22;690;51.454;7.194;2022-12-18T05:52:23;-4.70;1.00
1391;DHT22;690;51.454;7.194;2022-12-18T05:54:50;-4.80;1.00
1391;DHT22;690;51.454;7.194;2022-12-18T05:57:16;-4.80;1.00
1391;DHT22;690;51.454;7.194;2022-12-18T05:59:43;-4.80;1.00
1391;DHT22;690;51.454;7.194;2022-12-18T06:02:12;-4.80;1.00
1391;DHT22;690;51.454;7.194;2022-12-18T06:04:38;-4.90;1.00
1391;DHT22;690;51.454;7.194;2022-12-18T06:07:05;-4.90;1.00
1391;DHT22;690;51.454;7.194;2022-12-18T06:09:32;-4.90;1.00
1391;DHT22;690;51.454;7.194;2022-12-18T06:11:59;-4.90;1.00
1391;DHT22;690;51.454;7.194;2022-12-18T06:14:26;-4.90;1.00
1391;DHT22;690;51.454;7.194;2022-12-18T06:16:53;-4.90;1.00
1391;DHT22;690;51.454;7.194;2022-12-18T06:19:21;-4.90;1.00
1391;DHT22;690;51.454;7.194;2022-12-18T06:21:48;-4.80;1.00
1391;DHT22;690;51.454;7.194;2022-12-18T06:24:15;-4.80;1.00
1391;DHT22;690;51.454;7.194;2022-12-18T06:26:42;-4.80;1.00
1391;DHT22;690;51.454;7.194;2022-12-18T06:29:09;-4.80;1.00
1391;DHT22;690;51.454;7.194;2022-12-18T06:31:36;-4.80;1.00
1391;DHT22;690;51.454;7.194;2022-12-18T06:34:03;-4.80;1.00
1391;DHT22;690;51.454;7.194;2022-12-18T06:36:32;-4.80;1.00
1391;DHT22;690;51.454;7.194;2022-12-18T06:38:59;-4.80;1.00
1391;DHT22;690;51.454;7.194;2022-12-18T06:41:25;-4.80;1.00
1391;DHT22;690;51.454;7.194;2022-12-18T06:43:52;-4.80;1.00
1391;DHT22;690;51.454;7.194;2022-12-18T06:46:19;-4.80;1.00
1391;DHT22;690;51.454;7.194;2022-12-18T06:48:47;-4.80;1.00
1391;DHT22;690;51.454;7.194;2022-12-18T06:51:17;-4.70;1.00
1391;DHT22;690;51.454;7.194;2022-12-18T06:53:45;-4.80;1.00
1391;DHT22;690;51.454;7.194;2022-12-18T06:56:12;-4.70;1.00
1391;DHT22;690;51.454;7.194;2022-12-18T06:58:39;-4.80;1.00
1391;DHT22;690;51.454;7.194;2022-12-18T07:01:08;-4.70;1.00
1391;DHT22;690;51.454;7.194;2022-12-18T07:03:35;-4.70;1.00
1391;DHT22;690;51.454;7.194;2022-12-18T07:06:03;-4.70;1.00
1391;DHT22;690;51.454;7.194;2022-12-18T07:08:30;-4.70;1.00
1391;DHT22;690;51.454;7.194;2022-12-18T07:10:58;-4.70;1.00
1391;DHT22;690;51.454;7.194;2022-12-18T07:13:25;-4.70;1.00
1391;DHT22;690;51.454;7.194;2022-12-18T07:15:52;-4.70;1.00
1391;DHT22;690;51.454;7.194;2022-12-18T07:18:19;-4.60;1.00
1391;DHT22;690;51.454;7.194;2022-12-18T07:20:45;-4.60;1.00
1391;DHT22;690;51.454;7.194;2022-12-18T07:23:12;-4.60;1.00
1391;DHT22;690;51.454;7.194;2022-12-18T07:25:39;-4.60;1.00
1391;DHT22;690;51.454;7.194;2022-12-18T07:28:07;-4.60;1.00
1391;DHT22;690;51.454;7.194;2022-12-18T07:30:36;-4.60;1.00
1391;DHT22;690;51.454;7.194;2022-12-18T07:33:03;-4.60;1.00
1391;DHT22;690;51.454;7.194;2022-12-18T07:35:30;-4.60;1.00
1391;DHT22;690;51.454;7.194;2022-12-18T07:37:58;-4.60;1.00
1391;DHT22;690;51.454;7.194;2022-12-18T07:40:25;-4.60;1.00
1391;DHT22;690;51.454;7.194;2022-12-18T07:42:52;-4.60;1.00
1391;DHT22;690;51.454;7.194;2022-12-18T07:45:20;-4.40;1.00
1391;DHT22;690;51.454;7.194;2022-12-18T07:47:47;-4.20;1.00
1391;DHT22;690;51.454;7.194;2022-12-18T07:50:14;-4.10;1.00
1391;DHT22;690;51.454;7.194;2022-12-18T07:52:41;-4.20;1.00
1391;DHT22;690;51.454;7.194;2022-12-18T07:55:08;-4.20;1.00
1391;DHT22;690;51.454;7.194;2022-12-18T07:57:35;-4.30;1.00
1391;DHT22;690;51.454;7.194;2022-12-18T08:00:02;-4.30;1.00
1391;DHT22;690;51.454;7.194;2022-12-18T08:02:32;-4.30;1.00
1391;DHT22;690;51.454;7.194;2022-12-18T08:04:58;-4.20;1.00
1391;DHT22;690;51.454;7.194;2022-12-18T08:07:25;-4.20;1.00
1391;DHT22;690;51.454;7.194;2022-12-18T08:09:52;-4.20;1.00
1391;DHT22;690;51.454;7.194;2022-12-18T08:12:19;-4.20;1.00
1391;DHT22;690;51.454;7.194;2022-12-18T08:14:46;-4.20;1.00
1391;DHT22;690;51.454;7.194;2022-12-18T08:17:12;-4.10;1.00
1391;DHT22;690;51.454;7.194;2022-12-18T08:19:41;-4.10;1.00
1391;DHT22;690;51.454;7.194;2022-12-18T08:22:07;-4.10;1.00
1391;DHT22;690;51.454;7.194;2022-12-18T08:24:34;-4.00;1.00
1391;DHT22;690;51.454;7.194;2022-12-18T08:27:01;-4.00;1.00
1391;DHT22;690;51.454;7.194;2022-12-18T08:29:28;-3.90;1.00
1391;DHT22;690;51.454;7.194;2022-12-18T08:31:55;-3.90;1.00
1391;DHT22;690;51.454;7.194;2022-12-18T08:34:22;-3.80;1.00
1391;DHT22;690;51.454;7.194;2022-12-18T08:36:51;-3.80;1.00
1391;DHT22;690;51.454;7.194;2022-12-18T08:39:18;-3.70;1.00
1391;DHT22;690;51.454;7.194;2022-12-18T08:41:44;-3.60;1.00
1391;DHT22;690;51.454;7.194;2022-12-18T08:44:31;-3.60;1.00
1391;DHT22;690;51.454;7.194;2022-12-18T08:47:04;-3.60;1.00
1391;DHT22;690;51.454;7.194;2022-12-18T08:49:31;-3.60;1.00
1391;DHT22;690;51.454;7.194;2022-12-18T08:51:59;-3.50;1.00
1391;DHT22;690;51.454;7.194;2022-12-18T08:54:26;-3.40;1.00
1391;DHT22;690;51.454;7.194;2022-12-18T08:56:53;-3.30;1.00
1391;DHT22;690;51.454;7.194;2022-12-18T08:59:20;-3.20;1.00
1391;DHT22;690;51.454;7.194;2022-12-18T09:01:47;-3.10;1.00
1391;DHT22;690;51.454;7.194;2022-12-18T09:04:14;-3.10;1.00
1391;DHT22;690;51.454;7.194;2022-12-18T09:06:41;-3.00;1.00
1391;DHT22;690;51.454;7.194;2022-12-18T09:09:10;-3.00;1.00
1391;DHT22;690;51.454;7.194;2022-12-18T09:11:37;-2.90;1.00
1391;DHT22;690;51.454;7.194;2022-12-18T09:14:04;-2.90;1.00
1391;DHT22;690;51.454;7.194;2022-12-18T09:16:32;-2.90;1.00
1391;DHT22;690;51.454;7.194;2022-12-18T09:19:01;-2.70;1.00
1391;DHT22;690;51.454;7.194;2022-12-18T09:21:29;-2.70;1.00
1391;DHT22;690;51.454;7.194;2022-12-18T09:23:56;-2.60;1.00
1391;DHT22;690;51.454;7.194;2022-12-18T09:26:26;-2.50;1.00
1391;DHT22;690;51.454;7.194;2022-12-18T09:28:53;-2.50;1.00
1391;DHT22;690;51.454;7.194;2022-12-18T09:31:23;-2.50;1.00
1391;DHT22;690;51.454;7.194;2022-12-18T09:33:50;-2.40;1.00
1391;DHT22;690;51.454;7.194;2022-12-18T09:36:18;-2.40;1.00
1391;DHT22;690;51.454;7.194;2022-12-18T09:38:45;-2.30;1.00
1391;DHT22;690;51.454;7.194;2022-12-18T09:41:33;-2.30;1.00
1391;DHT22;690;51.454;7.194;2022-12-18T09:44:10;-2.30;1.00
1391;DHT22;690;51.454;7.194;2022-12-18T09:46:44;-2.20;1.00
1391;DHT22;690;51.454;7.194;2022-12-18T09:49:14;-2.10;1.00
1391;DHT22;690;51.454;7.194;2022-12-18T09:51:45;-2.00;1.00
1391;DHT22;690;51.454;7.194;2022-12-18T09:54:18;-1.90;1.00
1391;DHT22;690;51.454;7.194;2022-12-18T09:56:48;-1.80;1.00
1391;DHT22;690;51.454;7.194;2022-12-18T09:59:21;-1.70;1.00
1391;DHT22;690;51.454;7.194;2022-12-18T10:01:49;-1.60;1.00
1391;DHT22;690;51.454;7.194;2022-12-18T10:04:16;-1.50;1.00
1391;DHT22;690;51.454;7.194;2022-12-18T10:06:48;-1.40;1.00
1391;DHT22;690;51.454;7.194;2022-12-18T10:09:27;-1.30;1.00
1391;DHT22;690;51.454;7.194;2022-12-18T10:12:05;-1.10;1.00
1391;DHT22;690;51.454;7.194;2022-12-18T10:14:40;-1.00;1.00
1391;DHT22;690;51.454;7.194;2022-12-18T10:17:14;-0.90;1.00
1391;DHT22;690;51.454;7.194;2022-12-18T10:19:48;-0.80;1.00
1391;DHT22;690;51.454;7.194;2022-12-18T10:22:25;-0.70;1.00
1391;DHT22;690;51.454;7.194;2022-12-18T10:24:57;-0.60;1.00
1391;DHT22;690;51.454;7.194;2022-12-18T10:27:27;-0.60;1.00
1391;DHT22;690;51.454;7.194;2022-12-18T10:29:54;-0.50;1.00
1391;DHT22;690;51.454;7.194;2022-12-18T10:32:23;-0.40;1.00
1391;DHT22;690;51.454;7.194;2022-12-18T10:34:52;-0.40;1.00
1391;DHT22;690;51.454;7.194;2022-12-18T10:37:21;-0.20;1.00
1391;DHT22;690;51.454;7.194;2022-12-18T10:40:06;-0.20;1.00
1391;DHT22;690;51.454;7.194;2022-12-18T10:42:35;-0.10;1.00
1391;DHT22;690;51.454;7.194;2022-12-18T10:45:05;0.00;1.00
1391;DHT22;690;51.454;7.194;2022-12-18T10:47:34;0.10;1.00
1391;DHT22;690;51.454;7.194;2022-12-18T10:50:02;0.20;1.00
1391;DHT22;690;51.454;7.194;2022-12-18T10:52:30;0.30;1.00
1391;DHT22;690;51.454;7.194;2022-12-18T10:54:59;0.40;1.00
1391;DHT22;690;51.454;7.194;2022-12-18T10:57:33;0.60;1.00
1391;DHT22;690;51.454;7.194;2022-12-18T11:00:22;0.70;1.00
1391;DHT22;690;51.454;7.194;2022-12-18T11:02:50;0.80;1.00
1391;DHT22;690;51.454;7.194;2022-12-18T11:05:26;0.90;1.00
1391;DHT22;690;51.454;7.194;2022-12-18T11:07:57;1.00;1.00
1391;DHT22;690;51.454;7.194;2022-12-18T11:10:28;1.10;1.00
1391;DHT22;690;51.454;7.194;2022-12-18T11:13:09;1.10;1.00
1391;DHT22;690;51.454;7.194;2022-12-18T11:15:40;1.20;1.00
1391;DHT22;690;51.454;7.194;2022-12-18T11:18:16;1.30;1.00
1391;DHT22;690;51.454;7.194;2022-12-18T11:20:50;1.40;1.00
1391;DHT22;690;51.454;7.194;2022-12-18T11:23:19;1.40;1.00
1391;DHT22;690;51.454;7.194;2022-12-18T11:25:53;1.50;1.00
1391;DHT22;690;51.454;7.194;2022-12-18T11:28:37;1.50;1.00
1391;DHT22;690;51.454;7.194;2022-12-18T11:31:20;1.50;1.00
1391;DHT22;690;51.454;7.194;2022-12-18T11:33:52;1.50;1.00
1391;DHT22;690;51.454;7.194;2022-12-18T11:36:21;1.60;1.00
1391;DHT22;690;51.454;7.194;2022-12-18T11:38:51;1.70;1.00
1391;DHT22;690;51.454;7.194;2022-12-18T11:41:26;1.80;1.00
1391;DHT22;690;51.454;7.194;2022-12-18T11:44:18;1.80;1.00
1391;DHT22;690;51.454;7.194;2022-12-18T11:46:52;1.90;1.00
1391;DHT22;690;51.454;7.194;2022-12-18T11:49:25;1.90;1.00
1391;DHT22;690;51.454;7.194;2022-12-18T11:51:57;1.90;1.00
1391;DHT22;690;51.454;7.194;2022-12-18T11:54:25;2.00;1.00
1391;DHT22;690;51.454;7.194;2022-12-18T11:56:56;2.10;1.00
1391;DHT22;690;51.454;7.194;2022-12-18T11:59:31;2.20;1.00
1391;DHT22;690;51.454;7.194;2022-12-18T12:02:14;2.30;1.00
1391;DHT22;690;51.454;7.194;2022-12-18T12:05:02;2.40;1.00
1391;DHT22;690;51.454;7.194;2022-12-18T12:07:38;2.40;1.00
1391;DHT22;690;51.454;7.194;2022-12-18T12:10:20;2.40;1.00
1391;DHT22;690;51.454;7.194;2022-12-18T12:13:01;2.40;1.00
1391;DHT22;690;51.454;7.194;2022-12-18T12:15:34;2.40;1.00
1391;DHT22;690;51.454;7.194;2022-12-18T12:18:16;2.40;1.00
1391;DHT22;690;51.454;7.194;2022-12-18T12:20:50;2.50;1.00
1391;DHT22;690;51.454;7.194;2022-12-18T12:23:26;2.50;1.00
1391;DHT22;690;51.454;7.194;2022-12-18T12:25:59;2.50;1.00
1391;DHT22;690;51.454;7.194;2022-12-18T12:31:46;2.60;1.00
1391;DHT22;690;51.454;7.194;2022-12-18T12:34:22;2.70;1.00
1391;DHT22;690;51.454;7.194;2022-12-18T12:37:11;2.70;1.00
1391;DHT22;690;51.454;7.194;2022-12-18T12:39:44;2.80;1.00
1391;DHT22;690;51.454;7.194;2022-12-18T12:42:17;2.80;1.00
1391;DHT22;690;51.454;7.194;2022-12-18T12:45:05;2.80;1.00
1391;DHT22;690;51.454;7.194;2022-12-18T12:47:35;2.90;1.00
1391;DHT22;690;51.454;7.194;2022-12-18T12:50:11;2.90;1.00
1391;DHT22;690;51.454;7.194;2022-12-18T12:52:42;2.90;1.00
1391;DHT22;690;51.454;7.194;2022-12-18T12:55:15;3.00;1.00
1391;DHT22;690;51.454;7.194;2022-12-18T12:57:46;3.00;1.00
1391;DHT22;690;51.454;7.194;2022-12-18T13:00:16;3.00;1.00
1391;DHT22;690;51.454;7.194;2022-12-18T13:02:50;3.00;1.00
1391;DHT22;690;51.454;7.194;2022-12-18T13:05:25;3.00;1.00
1391;DHT22;690;51.454;7.194;2022-12-18T13:07:57;3.00;1.00
1391;DHT22;690;51.454;7.194;2022-12-18T13:10:33;3.10;1.00
1391;DHT22;690;51.454;7.194;2022-12-18T13:13:02;3.10;1.00
1391;DHT22;690;51.454;7.194;2022-12-18T13:15:32;3.10;1.00
1391;DHT22;690;51.454;7.194;2022-12-18T13:18:14;3.20;1.00
1391;DHT22;690;51.454;7.194;2022-12-18T13:20:44;3.20;1.00
1391;DHT22;690;51.454;7.194;2022-12-18T13:23:29;3.20;1.00
1391;DHT22;690;51.454;7.194;2022-12-18T13:25:58;3.20;1.00
1391;DHT22;690;51.454;7.194;2022-12-18T13:28:50;3.20;1.00
1391;DHT22;690;51.454;7.194;2022-12-18T13:34:24;3.20;1.00
1391;DHT22;690;51.454;7.194;2022-12-18T13:36:54;3.20;1.00
1391;DHT22;690;51.454;7.194;2022-12-18T13:39:39;3.20;1.00
1391;DHT22;690;51.454;7.194;2022-12-18T13:42:40;3.20;1.00
1391;DHT22;690;51.454;7.194;2022-12-18T13:45:45;3.20;1.00
1391;DHT22;690;51.454;7.194;2022-12-18T13:48:21;3.20;1.00
1391;DHT22;690;51.454;7.194;2022-12-18T13:50:53;3.20;1.00
1391;DHT22;690;51.454;7.194;2022-12-18T13:53:24;3.20;1.00
1391;DHT22;690;51.454;7.194;2022-12-18T13:55:53;3.20;1.00
1391;DHT22;690;51.454;7.194;2022-12-18T13:58:20;3.20;1.00
1391;DHT22;690;51.454;7.194;2022-12-18T14:00:46;3.20;1.00
1391;DHT22;690;51.454;7.194;2022-12-18T14:03:19;3.30;1.00
1391;DHT22;690;51.454;7.194;2022-12-18T14:05:53;3.30;1.00
1391;DHT22;690;51.454;7.194;2022-12-18T14:08:22;3.30;1.00
1391;DHT22;690;51.454;7.194;2022-12-18T14:10:50;3.30;1.00
1391;DHT22;690;51.454;7.194;2022-12-18T14:13:23;3.30;1.00
1391;DHT22;690;51.454;7.194;2022-12-18T14:15:51;3.30;1.00
1391;DHT22;690;51.454;7.194;2022-12-18T14:18:21;3.30;1.00
1391;DHT22;690;51.454;7.194;2022-12-18T14:20:50;3.30;1.00
1391;DHT22;690;51.454;7.194;2022-12-18T14:23:33;3.30;1.00
1391;DHT22;690;51.454;7.194;2022-12-18T14:26:01;3.30;1.00
1391;DHT22;690;51.454;7.194;2022-12-18T14:28:28;3.30;1.00
1391;DHT22;690;51.454;7.194;2022-12-18T14:30:55;3.20;1.00
1391;DHT22;690;51.454;7.194;2022-12-18T14:33:24;3.20;1.00
1391;DHT22;690;51.454;7.194;2022-12-18T14:35:57;3.30;1.00
1391;DHT22;690;51.454;7.194;2022-12-18T14:38:26;3.30;1.00
1391;DHT22;690;51.454;7.194;2022-12-18T14:40:57;3.30;1.00
1391;DHT22;690;51.454;7.194;2022-12-18T14:43:24;3.30;1.00
1391;DHT22;690;51.454;7.194;2022-12-18T14:45:51;3.30;1.00
1391;DHT22;690;51.454;7.194;2022-12-18T14:48:20;3.20;1.00
1391;DHT22;690;51.454;7.194;2022-12-18T14:50:55;3.20;1.00
1391;DHT22;690;51.454;7.194;2022-12-18T14:53:36;3.10;1.00
1391;DHT22;690;51.454;7.194;2022-12-18T14:56:14;3.10;1.00
1391;DHT22;690;51.454;7.194;2022-12-18T14:58:45;3.10;1.00
1391;DHT22;690;51.454;7.194;2022-12-18T15:01:22;3.10;1.00
1391;DHT22;690;51.454;7.194;2022-12-18T15:03:50;3.10;1.00
1391;DHT22;690;51.454;7.194;2022-12-18T15:06:24;3.10;1.00
1391;DHT22;690;51.454;7.194;2022-12-18T15:08:52;3.10;1.00
1391;DHT22;690;51.454;7.194;2022-12-18T15:11:29;3.00;1.00
1391;DHT22;690;51.454;7.194;2022-12-18T15:13:58;3.10;1.00
1391;DHT22;690;51.454;7.194;2022-12-18T15:16:26;3.10;1.00
1391;DHT22;690;51.454;7.194;2022-12-18T15:18:53;3.10;1.00
1391;DHT22;690;51.454;7.194;2022-12-18T15:21:20;3.10;1.00
1391;DHT22;690;51.454;7.194;2022-12-18T15:23:49;3.10;1.00
1391;DHT22;690;51.454;7.194;2022-12-18T15:26:18;3.10;1.00
1391;DHT22;690;51.454;7.194;2022-12-18T15:28:48;3.10;1.00
1391;DHT22;690;51.454;7.194;2022-12-18T15:31:24;3.10;1.00
1391;DHT22;690;51.454;7.194;2022-12-18T15:34:12;3.10;1.00
1391;DHT22;690;51.454;7.194;2022-12-18T15:36:40;3.10;1.00
1391;DHT22;690;51.454;7.194;2022-12-18T15:39:10;3.10;1.00
1391;DHT22;690;51.454;7.194;2022-12-18T15:41:37;3.10;1.00
1391;DHT22;690;51.454;7.194;2022-12-18T15:44:22;3.20;1.00
1391;DHT22;690;51.454;7.194;2022-12-18T15:46:48;3.20;1.00
1391;DHT22;690;51.454;7.194;2022-12-18T15:49:15;3.20;1.00
1391;DHT22;690;51.454;7.194;2022-12-18T15:51:42;3.30;1.00
1391;DHT22;690;51.454;7.194;2022-12-18T15:54:12;3.30;1.00
1391;DHT22;690;51.454;7.194;2022-12-18T15:56:41;3.40;1.00
1391;DHT22;690;51.454;7.194;2022-12-18T15:59:26;3.40;1.00
1391;DHT22;690;51.454;7.194;2022-12-18T16:01:53;3.50;1.00
1391;DHT22;690;51.454;7.194;2022-12-18T16:04:22;3.50;1.00
1391;DHT22;690;51.454;7.194;2022-12-18T16:06:50;3.50;1.00
1391;DHT22;690;51.454;7.194;2022-12-18T16:09:17;3.60;99.90
1391;DHT22;690;51.454;7.194;2022-12-18T16:11:44;3.70;99.90
1391;DHT22;690;51.454;7.194;2022-12-18T16:14:16;3.70;99.90
1391;DHT22;690;51.454;7.194;2022-12-18T16:16:45;3.70;99.90
1391;DHT22;690;51.454;7.194;2022-12-18T16:19:12;3.70;99.90
1391;DHT22;690;51.454;7.194;2022-12-18T16:21:39;3.70;99.90
1391;DHT22;690;51.454;7.194;2022-12-18T16:24:12;3.80;99.90
1391;DHT22;690;51.454;7.194;2022-12-18T16:26:39;3.80;99.90
1391;DHT22;690;51.454;7.194;2022-12-18T16:29:07;3.80;99.90
1391;DHT22;690;51.454;7.194;2022-12-18T16:31:34;3.80;99.90
1391;DHT22;690;51.454;7.194;2022-12-18T16:34:12;3.80;99.90
1391;DHT22;690;51.454;7.194;2022-12-18T16:36:39;3.90;99.90
1391;DHT22;690;51.454;7.194;2022-12-18T16:39:06;3.90;99.90
1391;DHT22;690;51.454;7.194;2022-12-18T16:41:33;3.90;99.90
1391;DHT22;690;51.454;7.194;2022-12-18T16:44:01;3.90;99.90
1391;DHT22;690;51.454;7.194;2022-12-18T16:46:27;3.90;99.90
1391;DHT22;690;51.454;7.194;2022-12-18T16:48:54;3.90;99.90
1391;DHT22;690;51.454;7.194;2022-12-18T16:51:24;3.90;99.90
1391;DHT22;690;51.454;7.194;2022-12-18T16:53:51;3.90;99.90
1391;DHT22;690;51.454;7.194;2022-12-18T16:56:18;3.90;99.90
1391;DHT22;690;51.454;7.194;2022-12-18T16:58:50;3.90;99.90
1391;DHT22;690;51.454;7.194;2022-12-18T17:01:17;3.90;99.90
1391;DHT22;690;51.454;7.194;2022-12-18T17:03:43;3.90;99.90
1391;DHT22;690;51.454;7.194;2022-12-18T17:06:10;3.90;99.90